Mc Crory, Arkansas
Current Conditions -  °F | °C
As of 3:43 PM on Wednesday 17 Dec 2014 (Local Time) from KM19 Reporting Station
Light Rain Light Rain  
Wind Chill: 37°   Ceiling: 12000
Heat Index: 37°   Visibility: 2mi
Dew Point: 30°   Wind: 3mph
Humidity: 75%   Direction: 30°NNE
Pressure: 30.3"   Gusts: NA
Location:  35.2562°N, 91.1949°W
Report Text: KM19 172143Z AUTO 03003KT 2SM -RA BKN120 03/M01 A3030 RMK AO2 VIS 3/4V5 RAB36 P0000
Loading
Personal Weather Stations






























Interactive Weather Map New forecast layout! Learn more

10-Day Weather Forecast

Advertisements
Track Severe Weather on mobile